Time;durP1;ratioP1;P1;durP2;ratioP2;P2;SDS_P1;SDS_P2;PMS_P1;PMS_P2;Temp;Humidity;BMP_temperature;BMP_pressure;BME280_temperature;BME280_humidity;BME280_pressure;Samples;Min_cycle;Max_cycle;Signal;HPM_P1;HPM_P2
2021/01/25 00:01:50;;;;;;;7.37;4.70;;;7.50;53.30;;;;;;4951607;28;20384;-50
2021/01/25 00:04:15;;;;;;;6.53;4.57;;;7.50;52.60;;;;;;4965849;28;20053;-54
2021/01/25 00:06:41;;;;;;;7.13;5.07;;;7.50;51.40;;;;;;4955666;28;20656;-52
2021/01/25 00:09:07;;;;;;;7.10;4.97;;;7.50;52.80;;;;;;4960121;28;20074;-56
2021/01/25 00:11:32;;;;;;;5.40;4.27;;;7.50;50.90;;;;;;4957448;28;20035;-53
2021/01/25 00:13:58;;;;;;;6.77;4.87;;;7.40;51.20;;;;;;4957867;28;20112;-53
2021/01/25 00:16:23;;;;;;;6.37;4.50;;;7.40;51.70;;;;;;4961003;28;20046;-51
2021/01/25 00:18:49;;;;;;;8.67;4.80;;;7.30;51.20;;;;;;4967317;28;20039;-51
2021/01/25 00:21:15;;;;;;;9.13;4.37;;;7.40;49.70;;;;;;4956258;28;20075;-51
2021/01/25 00:23:40;;;;;;;5.13;4.30;;;7.30;50.80;;;;;;4964942;28;20028;-50
2021/01/25 00:26:06;;;;;;;4.90;4.13;;;7.30;50.60;;;;;;4953762;28;20071;-53
2021/01/25 00:28:32;;;;;;;6.90;3.70;;;7.30;49.40;;;;;;4967471;28;20035;-53
2021/01/25 00:30:57;;;;;;;5.33;3.87;;;7.30;49.00;;;;;;4970123;28;20148;-50
2021/01/25 00:33:33;;;;;;;6.40;4.13;;;7.30;48.50;;;;;;4955498;28;20039;-51
2021/01/25 00:35:59;;;;;;;8.43;4.23;;;7.20;46.40;;;;;;4961429;28;20057;-50
2021/01/25 00:38:25;;;;;;;6.53;4.37;;;7.10;49.70;;;;;;4960699;28;20046;-53
2021/01/25 00:40:50;;;;;;;7.03;4.53;;;7.10;48.90;;;;;;4956529;28;20047;-54
2021/01/25 00:43:16;;;;;;;7.10;4.03;;;7.10;48.30;;;;;;4959943;28;20109;-50
2021/01/25 00:45:42;;;;;;;5.60;4.07;;;7.00;48.90;;;;;;4957303;28;20050;-51
2021/01/25 00:48:07;;;;;;;6.47;4.20;;;7.00;48.70;;;;;;4953151;28;20043;-54
2021/01/25 00:50:33;;;;;;;6.43;4.37;;;6.90;49.00;;;;;;4962655;28;20372;-52
2021/01/25 00:52:59;;;;;;;6.00;4.30;;;6.90;47.50;;;;;;4957750;28;20548;-55
2021/01/25 00:55:24;;;;;;;7.27;4.40;;;6.90;47.90;;;;;;4968759;28;20123;-54
2021/01/25 00:57:50;;;;;;;7.87;4.17;;;6.80;47.90;;;;;;4952010;28;20050;-54
2021/01/25 01:00:16;;;;;;;5.33;3.77;;;6.80;47.30;;;;;;4964529;28;20058;-53
2021/01/25 01:02:42;;;;;;;5.70;3.50;;;6.90;47.80;;;;;;4959472;28;20043;-53
2021/01/25 01:05:08;;;;;;;4.00;3.30;;;6.80;47.50;;;;;;4963299;28;20643;-55
2021/01/25 01:07:35;;;;;;;6.00;3.67;;;6.80;46.80;;;;;;4957806;28;20038;-54
2021/01/25 01:10:02;;;;;;;5.47;3.53;;;6.70;46.60;;;;;;4956711;28;20042;-50
2021/01/25 01:12:27;;;;;;;4.23;3.40;;;6.70;46.40;;;;;;4964673;28;20153;-55
2021/01/25 01:14:53;;;;;;;5.90;3.50;;;6.70;48.00;;;;;;4957017;28;20126;-55
2021/01/25 01:17:19;;;;;;;5.10;3.30;;;6.60;46.80;;;;;;4959922;28;20104;-55
2021/01/25 01:19:45;;;;;;;6.47;3.60;;;6.60;47.40;;;;;;4953617;28;20181;-53
2021/01/25 01:22:10;;;;;;;4.80;3.63;;;6.60;47.40;;;;;;4961657;28;20123;-49
2021/01/25 01:24:36;;;;;;;4.67;3.23;;;6.60;48.40;;;;;;4961711;28;20035;-52
2021/01/25 01:27:02;;;;;;;4.17;3.20;;;6.60;47.30;;;;;;4962089;28;20065;-53
2021/01/25 01:29:28;;;;;;;5.97;3.90;;;6.60;46.00;;;;;;4955033;28;20391;-52
2021/01/25 01:31:54;;;;;;;3.63;2.90;;;6.70;47.00;;;;;;4957386;28;20062;-51
2021/01/25 01:34:20;;;;;;;4.50;3.03;;;6.60;46.90;;;;;;4962006;28;20046;-52
2021/01/25 01:36:45;;;;;;;4.30;3.27;;;6.60;47.10;;;;;;4960330;28;20089;-50
2021/01/25 01:39:11;;;;;;;4.17;2.83;;;6.60;47.50;;;;;;4953410;28;20169;-50
2021/01/25 01:41:37;;;;;;;4.47;3.40;;;6.60;47.10;;;;;;4957024;28;20138;-51
2021/01/25 01:44:07;;;;;;;4.03;2.73;;;6.60;46.50;;;;;;4956261;28;20476;-51
2021/01/25 01:46:34;;;;;;;4.63;3.27;;;6.50;46.20;;;;;;4958951;28;20035;-50
2021/01/25 01:49:01;;;;;;;3.37;2.70;;;6.50;47.40;;;;;;4961621;28;20047;-53
2021/01/25 01:51:27;;;;;;;4.17;3.17;;;6.60;48.90;;;;;;4955290;28;20043;-51
2021/01/25 01:53:54;;;;;;;3.40;2.50;;;6.60;47.60;;;;;;4961757;28;20043;-52
2021/01/25 01:56:20;;;;;;;4.57;2.97;;;6.50;47.90;;;;;;4958579;28;20052;-55
2021/01/25 01:58:45;;;;;;;6.20;2.80;;;6.50;49.00;;;;;;4957162;28;20108;-53
2021/01/25 02:01:11;;;;;;;2.60;2.00;;;6.60;47.90;;;;;;4956378;28;20055;-51
2021/01/25 02:03:37;;;;;;;2.70;2.47;;;6.50;46.90;;;;;;4959724;28;20164;-51
2021/01/25 02:06:06;;;;;;;3.33;2.53;;;6.50;46.30;;;;;;4959376;28;20035;-52
2021/01/25 02:08:34;;;;;;;3.40;2.23;;;6.60;46.70;;;;;;4963081;28;20042;-52
2021/01/25 02:11:00;;;;;;;5.30;2.57;;;6.50;47.10;;;;;;4955166;28;20043;-53
2021/01/25 02:13:26;;;;;;;3.73;2.00;;;6.60;47.20;;;;;;4965878;28;20438;-51
2021/01/25 02:15:52;;;;;;;3.20;2.00;;;6.50;46.80;;;;;;4974412;28;20047;-56
2021/01/25 02:18:18;;;;;;;2.30;2.10;;;6.50;45.90;;;;;;4960552;28;20039;-53
2021/01/25 02:20:45;;;;;;;3.07;2.17;;;6.60;46.50;;;;;;4952688;28;20043;-52
2021/01/25 02:23:26;;;;;;;4.13;2.23;;;6.50;45.90;;;;;;4963238;28;20092;-52
2021/01/25 02:26:07;;;;;;;2.07;1.60;;;6.60;47.20;;;;;;4962906;28;20058;-50
2021/01/25 02:28:36;;;;;;;3.30;2.27;;;6.50;47.10;;;;;;4956723;28;20037;-53
2021/01/25 02:31:05;;;;;;;4.03;2.37;;;6.50;48.30;;;;;;4956082;28;20042;-51
2021/01/25 02:33:34;;;;;;;4.20;2.77;;;6.50;47.70;;;;;;4967204;28;20093;-51
2021/01/25 02:36:00;;;;;;;3.50;1.97;;;6.50;47.20;;;;;;4950743;28;20043;-55
2021/01/25 02:38:27;;;;;;;2.70;1.70;;;6.50;47.60;;;;;;4960862;28;20047;-50
2021/01/25 02:40:54;;;;;;;3.13;2.10;;;6.50;48.20;;;;;;4962765;28;20054;-50
2021/01/25 02:43:21;;;;;;;3.33;1.97;;;6.50;47.90;;;;;;4960794;28;20090;-52
2021/01/25 02:45:48;;;;;;;2.23;1.60;;;6.50;47.60;;;;;;4965171;28;20058;-52
2021/01/25 02:48:14;;;;;;;2.90;1.57;;;6.40;47.50;;;;;;4960753;28;20076;-53
2021/01/25 02:50:39;;;;;;;4.03;2.20;;;6.40;46.00;;;;;;4962491;28;20043;-52
2021/01/25 02:53:05;;;;;;;2.13;1.50;;;6.40;47.50;;;;;;4961900;28;20075;-52
2021/01/25 02:55:33;;;;;;;4.97;2.20;;;6.40;46.50;;;;;;4961843;28;20047;-49
2021/01/25 02:58:00;;;;;;;3.97;1.70;;;6.40;46.80;;;;;;4961927;28;20038;-53
2021/01/25 03:00:26;;;;;;;2.87;1.90;;;6.30;47.90;;;;;;4961315;28;20082;-49
2021/01/25 03:02:53;;;;;;;3.07;2.27;;;6.30;49.00;;;;;;4956393;28;20078;-55
2021/01/25 03:05:18;;;;;;;3.87;2.13;;;6.30;49.40;;;;;;4963814;28;20027;-51
2021/01/25 03:07:44;;;;;;;2.07;1.80;;;6.20;49.60;;;;;;4960317;28;20101;-51
2021/01/25 03:10:10;;;;;;;2.73;2.00;;;6.20;49.30;;;;;;4975454;28;20125;-49
2021/01/25 03:12:36;;;;;;;3.70;2.00;;;6.20;47.90;;;;;;4957343;28;20415;-49
2021/01/25 03:15:05;;;;;;;1.77;1.43;;;6.20;48.20;;;;;;4964706;28;20088;-49
2021/01/25 03:17:31;;;;;;;2.23;1.43;;;6.10;48.20;;;;;;4959636;28;20049;-50
2021/01/25 03:19:56;;;;;;;2.37;1.93;;;6.10;48.20;;;;;;4959495;28;20051;-48
2021/01/25 03:22:22;;;;;;;2.27;1.33;;;6.10;49.30;;;;;;4963998;28;20043;-48
2021/01/25 03:24:47;;;;;;;2.93;1.50;;;6.10;50.70;;;;;;4961090;28;20035;-52
2021/01/25 03:27:13;;;;;;;2.93;1.60;;;6.20;50.40;;;;;;4962313;28;20473;-52
2021/01/25 03:29:39;;;;;;;2.00;1.50;;;6.20;50.60;;;;;;4958666;28;20491;-51
2021/01/25 03:32:04;;;;;;;1.50;1.10;;;6.20;50.60;;;;;;4960388;28;20445;-48
2021/01/25 03:34:30;;;;;;;1.77;1.13;;;6.10;49.00;;;;;;4958047;28;20496;-50
2021/01/25 03:36:56;;;;;;;1.57;1.40;;;6.10;49.10;;;;;;4963819;28;20074;-50
2021/01/25 03:39:21;;;;;;;1.33;1.10;;;6.10;49.20;;;;;;4964978;28;20035;-53
2021/01/25 03:41:48;;;;;;;2.53;1.27;;;6.20;50.00;;;;;;4987629;27;20110;-53
2021/01/25 03:44:14;;;;;;;4.23;1.83;;;6.10;49.80;;;;;;4993450;28;20401;-50
2021/01/25 03:46:45;;;;;;;2.07;1.27;;;6.20;50.50;;;;;;4998814;28;20495;-53
2021/01/25 03:49:11;;;;;;;1.50;1.10;;;6.10;49.40;;;;;;5009600;28;20492;-54
2021/01/25 03:51:37;;;;;;;1.30;0.87;;;6.10;49.40;;;;;;5001899;28;20077;-52
2021/01/25 03:54:02;;;;;;;1.43;1.00;;;6.10;49.40;;;;;;5003540;28;20124;-50
2021/01/25 03:56:28;;;;;;;2.43;1.30;;;6.10;50.00;;;;;;5001364;28;20050;-49
2021/01/25 03:58:54;;;;;;;2.17;1.23;;;6.10;50.20;;;;;;5006091;28;20048;-57
2021/01/25 04:01:19;;;;;;;1.53;1.43;;;6.10;50.00;;;;;;5001931;28;20092;-49
2021/01/25 04:03:45;;;;;;;2.37;1.07;;;6.10;49.40;;;;;;4997641;28;20039;-50
2021/01/25 04:06:11;;;;;;;3.97;1.47;;;6.20;48.20;;;;;;4991452;28;20478;-49
2021/01/25 04:08:36;;;;;;;2.50;1.07;;;6.20;48.70;;;;;;4996085;28;20065;-51
2021/01/25 04:11:02;;;;;;;2.40;1.20;;;6.20;49.50;;;;;;5002536;28;20535;-49
2021/01/25 04:13:27;;;;;;;2.67;1.10;;;6.20;48.90;;;;;;5006658;28;20045;-50
2021/01/25 04:15:53;;;;;;;2.70;1.30;;;6.20;48.70;;;;;;5015120;28;20117;-49
2021/01/25 04:18:19;;;;;;;1.37;1.00;;;6.20;49.00;;;;;;5014841;28;20045;-50
2021/01/25 04:20:44;;;;;;;2.13;1.10;;;6.20;49.30;;;;;;4998414;28;20150;-51
2021/01/25 04:23:10;;;;;;;2.10;1.13;;;6.20;49.20;;;;;;5000628;28;20068;-52
2021/01/25 04:25:36;;;;;;;1.93;1.00;;;6.30;49.80;;;;;;5018447;28;20052;-51
2021/01/25 04:28:02;;;;;;;1.33;1.17;;;6.30;49.70;;;;;;4998684;28;20082;-51
2021/01/25 04:30:28;;;;;;;1.53;1.10;;;6.30;48.70;;;;;;4996210;28;20061;-48
2021/01/25 04:32:54;;;;;;;2.20;1.33;;;6.30;49.20;;;;;;5007544;28;20061;-53
2021/01/25 04:35:19;;;;;;;5.17;0.93;;;6.30;49.40;;;;;;5003250;28;20091;-51
2021/01/25 04:37:45;;;;;;;1.63;1.07;;;6.40;47.20;;;;;;4998032;28;20546;-53
2021/01/25 04:40:11;;;;;;;1.80;1.13;;;6.40;50.00;;;;;;4988243;28;20126;-51
2021/01/25 04:42:39;;;;;;;3.63;2.57;;;6.40;48.80;;;;;;4997511;28;20074;-55
2021/01/25 04:45:10;;;;;;;5.67;3.70;;;6.20;46.30;;;;;;5008225;28;20038;-53
2021/01/25 04:47:37;;;;;;;6.07;3.90;;;6.00;48.50;;;;;;5000711;28;20072;-53
2021/01/25 04:50:04;;;;;;;5.50;4.00;;;6.00;49.90;;;;;;5002168;28;20407;-53
2021/01/25 04:52:31;;;;;;;5.27;4.33;;;6.00;49.30;;;;;;5002722;28;20073;-54
2021/01/25 04:54:57;;;;;;;8.03;4.43;;;6.00;49.40;;;;;;5002563;28;20125;-52
2021/01/25 04:57:23;;;;;;;7.53;4.70;;;6.00;51.60;;;;;;4995813;28;20042;-53
2021/01/25 04:59:51;;;;;;;4.07;3.63;;;6.10;49.80;;;;;;4998299;28;20406;-53
2021/01/25 05:02:17;;;;;;;6.17;4.43;;;6.00;49.50;;;;;;5002808;28;20037;-52
2021/01/25 05:04:42;;;;;;;5.70;4.33;;;6.00;51.20;;;;;;5013114;28;20573;-53
2021/01/25 05:07:08;;;;;;;7.47;4.10;;;6.10;51.20;;;;;;5005366;28;20047;-50
2021/01/25 05:09:34;;;;;;;6.07;3.50;;;6.10;51.80;;;;;;4998962;28;20045;-50
2021/01/25 05:12:02;;;;;;;4.93;3.20;;;6.10;52.10;;;;;;4996486;28;20560;-52
2021/01/25 05:14:43;;;;;;;6.80;3.43;;;6.10;50.50;;;;;;5009164;28;20030;-50
2021/01/25 05:17:13;;;;;;;7.67;4.60;;;6.10;50.60;;;;;;4995866;28;20050;-50
2021/01/25 05:19:42;;;;;;;6.20;3.73;;;6.10;51.00;;;;;;5007058;28;20532;-53
2021/01/25 05:22:12;;;;;;;4.20;2.60;;;6.10;51.70;;;;;;5005645;28;20058;-50
2021/01/25 05:24:45;;;;;;;5.17;3.30;;;6.20;50.40;;;;;;5003311;28;20033;-55
2021/01/25 05:27:20;;;;;;;4.47;3.33;;;6.20;49.10;;;;;;5000562;28;20047;-51
2021/01/25 05:29:45;;;;;;;4.13;2.88;;;6.20;50.30;;;;;;5001802;28;20043;-49
2021/01/25 05:32:11;;;;;;;5.40;3.37;;;6.20;50.70;;;;;;4999899;28;20129;-49
2021/01/25 05:34:37;;;;;;;3.47;3.17;;;6.30;51.30;;;;;;5004723;28;20087;-50
2021/01/25 05:37:02;;;;;;;5.63;2.80;;;6.30;52.50;;;;;;4998630;28;20117;-49
2021/01/25 05:39:31;;;;;;;5.30;2.70;;;6.30;50.70;;;;;;4997678;28;20038;-50
2021/01/25 05:41:59;;;;;;;4.30;3.20;;;6.20;50.50;;;;;;4997565;28;20070;-50
2021/01/25 05:44:26;;;;;;;5.53;2.80;;;6.20;48.90;;;;;;5009772;28;20072;-55
2021/01/25 05:47:08;;;;;;;4.17;2.83;;;6.20;49.60;;;;;;5001347;28;20107;-52
2021/01/25 05:49:35;;;;;;;5.10;3.17;;;6.20;49.60;;;;;;4984222;28;20532;-49
2021/01/25 05:52:00;;;;;;;4.50;3.57;;;6.10;51.30;;;;;;4984371;28;20055;-52
2021/01/25 05:54:26;;;;;;;5.80;3.37;;;6.20;51.50;;;;;;5010981;28;20035;-53
2021/01/25 05:56:52;;;;;;;5.07;3.17;;;6.20;52.50;;;;;;5008876;28;20440;-49
2021/01/25 05:59:19;;;;;;;5.33;3.20;;;6.10;53.00;;;;;;5001623;28;20045;-50
2021/01/25 06:01:46;;;;;;;4.73;3.70;;;6.10;53.60;;;;;;5000937;28;20053;-53
2021/01/25 06:04:23;;;;;;;5.50;3.13;;;6.10;53.60;;;;;;5003306;28;20042;-53
2021/01/25 06:07:05;;;;;;;5.13;3.23;;;6.10;55.50;;;;;;5018618;28;20033;-53
2021/01/25 06:09:53;;;;;;;6.20;3.47;;;6.20;54.30;;;;;;4949439;28;20597;-52
2021/01/25 06:12:38;;;;;;;5.43;3.57;;;6.30;52.50;;;;;;4985550;28;20493;-53
2021/01/25 06:15:06;;;;;;;9.88;4.78;;;6.30;53.80;;;;;;4969439;28;20042;-50
2021/01/25 06:17:35;;;;;;;10.33;4.50;;;6.40;55.20;;;;;;5003264;28;20058;-49
2021/01/25 06:20:04;;;;;;;7.30;4.00;;;6.40;54.80;;;;;;5002934;28;20044;-52
2021/01/25 06:22:30;;;;;;;9.67;4.60;;;6.40;53.50;;;;;;5012820;28;20026;-54
2021/01/25 06:24:58;;;;;;;8.07;5.67;;;6.40;52.60;;;;;;4998088;28;20034;-54
2021/01/25 06:27:25;;;;;;;8.47;4.77;;;6.40;52.80;;;;;;5013934;28;20121;-53
2021/01/25 06:29:52;;;;;;;9.80;4.60;;;6.40;54.80;;;;;;5005686;28;20064;-52
2021/01/25 06:32:18;;;;;;;8.40;4.67;;;6.50;54.70;;;;;;5009047;28;20090;-53
2021/01/25 06:34:44;;;;;;;6.30;4.90;;;6.40;53.50;;;;;;5001278;28;20046;-52
2021/01/25 06:37:12;;;;;;;7.10;4.27;;;6.40;53.40;;;;;;5003967;28;20045;-55
2021/01/25 06:39:47;;;;;;;7.30;4.23;;;6.40;52.90;;;;;;5023023;28;20037;-54
2021/01/25 06:42:17;;;;;;;5.73;4.03;;;6.40;53.10;;;;;;4994705;28;20052;-55
2021/01/25 06:44:44;;;;;;;8.77;4.70;;;6.40;52.60;;;;;;5005316;28;20443;-55
2021/01/25 06:47:15;;;;;;;6.80;4.30;;;6.40;52.90;;;;;;4996174;28;20066;-53
2021/01/25 06:49:43;;;;;;;8.40;3.93;;;6.40;52.70;;;;;;5001279;28;20410;-49
2021/01/25 06:52:09;;;;;;;7.53;4.17;;;6.40;53.10;;;;;;4995306;28;20035;-51
2021/01/25 06:54:42;;;;;;;8.67;4.30;;;6.50;53.10;;;;;;5004914;28;20042;-50
2021/01/25 06:57:08;;;;;;;8.27;4.60;;;6.50;53.40;;;;;;4992836;28;20037;-49
2021/01/25 06:59:36;;;;;;;8.47;4.30;;;6.50;52.90;;;;;;5001724;28;20050;-50
2021/01/25 07:02:09;;;;;;;5.77;3.97;;;6.50;53.60;;;;;;4999900;28;20050;-50
2021/01/25 07:04:43;;;;;;;6.33;4.07;;;6.50;54.30;;;;;;5003893;28;20390;-50
2021/01/25 07:07:25;;;;;;;5.13;2.92;;;6.50;52.50;;;;;;4995562;28;20137;-50
2021/01/25 07:09:53;;;;;;;9.20;4.10;;;6.40;54.90;;;;;;5009199;28;20052;-50
2021/01/25 07:12:21;;;;;;;8.23;4.00;;;6.40;55.70;;;;;;4999862;28;20040;-51
2021/01/25 07:14:47;;;;;;;7.30;4.33;;;6.40;54.50;;;;;;5008212;28;22168;-51
2021/01/25 07:17:13;;;;;;;5.97;4.60;;;6.30;53.80;;;;;;5008412;28;20049;-55
2021/01/25 07:19:39;;;;;;;6.03;4.60;;;6.30;53.70;;;;;;5009080;28;20103;-50
2021/01/25 07:22:07;;;;;;;6.60;3.90;;;6.30;54.10;;;;;;5004161;28;20061;-53
2021/01/25 07:24:37;;;;;;;9.40;4.33;;;6.20;53.90;;;;;;5002799;28;20042;-53
2021/01/25 07:27:04;;;;;;;7.77;4.77;;;6.20;53.70;;;;;;5012309;28;20049;-53
2021/01/25 07:29:31;;;;;;;8.43;4.93;;;6.10;53.50;;;;;;5008253;28;20044;-50
2021/01/25 07:31:58;;;;;;;7.30;5.33;;;6.10;54.40;;;;;;4994348;28;20487;-53
2021/01/25 07:34:25;;;;;;;8.97;5.90;;;6.10;54.20;;;;;;5005017;28;20551;-50
2021/01/25 07:36:51;;;;;;;10.07;6.50;;;6.00;54.70;;;;;;5020600;28;20511;-54
2021/01/25 07:39:19;;;;;;;9.10;5.90;;;6.10;54.80;;;;;;5001269;28;20033;-50
2021/01/25 07:41:46;;;;;;;8.77;6.40;;;6.00;55.10;;;;;;5001452;28;23006;-53
2021/01/25 07:44:13;;;;;;;10.53;7.03;;;6.00;55.20;;;;;;5004413;28;20042;-49
2021/01/25 07:46:40;;;;;;;9.93;6.20;;;5.90;55.70;;;;;;4996740;28;20052;-50
2021/01/25 07:49:06;;;;;;;10.43;6.60;;;6.00;55.40;;;;;;5035833;28;20041;-53
2021/01/25 07:51:33;;;;;;;8.27;6.20;;;6.00;56.20;;;;;;5000514;28;20030;-52
2021/01/25 07:54:00;;;;;;;10.77;6.67;;;6.00;55.50;;;;;;5021030;28;20034;-51
2021/01/25 07:56:27;;;;;;;12.33;6.37;;;6.00;56.20;;;;;;4994556;28;20037;-53
2021/01/25 07:59:04;;;;;;;8.37;6.50;;;6.00;55.50;;;;;;4999433;28;20030;-53
2021/01/25 08:01:33;;;;;;;10.67;6.17;;;6.00;55.30;;;;;;4997413;28;20563;-50
2021/01/25 08:04:03;;;;;;;17.03;7.23;;;6.00;56.20;;;;;;5008862;28;20052;-49
2021/01/25 08:06:35;;;;;;;10.87;7.07;;;6.00;56.00;;;;;;5021300;28;20042;-53
2021/01/25 08:09:10;;;;;;;7.90;6.33;;;6.00;55.00;;;;;;4996086;28;20482;-54
2021/01/25 08:11:38;;;;;;;9.67;6.57;;;6.10;55.60;;;;;;5028950;28;20493;-56
2021/01/25 08:14:03;;;;;;;7.10;6.03;;;6.00;56.20;;;;;;5002811;28;20039;-52
2021/01/25 08:16:36;;;;;;;9.40;5.63;;;6.00;55.40;;;;;;5007454;28;20038;-52
2021/01/25 08:19:13;;;;;;;9.10;5.30;;;6.10;55.10;;;;;;4995860;28;20046;-51
2021/01/25 08:21:55;;;;;;;10.57;6.30;;;6.10;54.80;;;;;;5002462;28;20065;-55
2021/01/25 08:24:21;;;;;;;9.73;5.20;;;6.10;54.10;;;;;;4998074;28;20038;-56
2021/01/25 08:26:47;;;;;;;8.40;5.00;;;6.10;55.50;;;;;;5005713;28;20140;-53
2021/01/25 08:29:21;;;;;;;7.33;5.33;;;6.20;53.70;;;;;;4998573;28;20129;-53
2021/01/25 08:31:47;;;;;;;9.38;5.90;;;6.20;54.60;;;;;;4988601;28;20038;-53
2021/01/25 08:34:30;;;;;;;9.80;5.77;;;6.20;52.20;;;;;;5020279;28;20378;-53
2021/01/25 08:37:12;;;;;;;7.60;4.50;;;6.30;51.10;;;;;;5003808;28;20041;-53
2021/01/25 08:39:42;;;;;;;5.70;4.00;;;6.40;53.20;;;;;;5002947;28;20087;-52
2021/01/25 08:42:20;;;;;;;8.57;4.63;;;6.40;52.70;;;;;;5027612;27;20042;-52
2021/01/25 08:44:49;;;;;;;7.37;4.70;;;6.40;51.10;;;;;;4994629;28;20046;-54
2021/01/25 08:47:18;;;;;;;6.63;4.90;;;6.40;54.20;;;;;;5011794;27;20056;-50
2021/01/25 08:49:44;;;;;;;9.40;5.40;;;6.40;52.30;;;;;;5000925;28;20034;-53
2021/01/25 08:52:25;;;;;;;8.27;5.53;;;6.50;53.10;;;;;;4997997;28;20046;-49
2021/01/25 08:54:51;;;;;;;6.23;4.50;;;6.50;49.30;;;;;;4998143;28;20034;-52
2021/01/25 08:57:17;;;;;;;9.23;5.27;;;6.70;51.30;;;;;;4999567;28;20061;-52
2021/01/25 08:59:44;;;;;;;9.17;4.57;;;6.90;51.80;;;;;;4997793;28;20429;-51
2021/01/25 09:02:12;;;;;;;7.27;5.40;;;7.00;51.20;;;;;;4999076;28;20083;-54
2021/01/25 09:04:37;;;;;;;8.47;4.83;;;7.40;53.10;;;;;;4995860;28;20079;-55
2021/01/25 09:07:03;;;;;;;7.50;4.60;;;7.60;50.90;;;;;;5008372;28;20130;-53
2021/01/25 09:09:29;;;;;;;8.00;4.23;;;7.80;48.30;;;;;;5028369;28;20539;-50
2021/01/25 09:11:56;;;;;;;9.90;5.10;;;7.80;48.20;;;;;;4993751;28;20034;-54
2021/01/25 09:14:22;;;;;;;8.37;5.23;;;8.00;48.20;;;;;;5006035;28;20438;-55
2021/01/25 09:16:49;;;;;;;8.80;5.67;;;8.20;49.30;;;;;;4995022;28;20054;-54
2021/01/25 09:19:15;;;;;;;7.47;4.83;;;8.30;49.60;;;;;;5018548;28;20045;-53
2021/01/25 09:21:41;;;;;;;7.40;5.00;;;8.30;49.10;;;;;;5026884;28;20053;-55
2021/01/25 09:24:07;;;;;;;8.63;4.90;;;8.50;49.30;;;;;;5012797;28;20076;-52
2021/01/25 09:26:33;;;;;;;8.30;5.20;;;8.50;49.00;;;;;;5003602;28;20052;-52
2021/01/25 09:28:59;;;;;;;8.80;5.07;;;8.50;49.20;;;;;;5005053;28;20542;-49
2021/01/25 09:31:26;;;;;;;6.83;4.33;;;8.70;47.90;;;;;;4997826;28;20196;-54
2021/01/25 09:33:53;;;;;;;8.23;4.60;;;8.70;48.10;;;;;;5017077;28;20499;-51
2021/01/25 09:36:19;;;;;;;7.47;4.00;;;8.70;47.30;;;;;;4996556;28;20038;-51
2021/01/25 09:38:45;;;;;;;8.47;4.70;;;8.70;46.50;;;;;;4999678;28;20042;-51
2021/01/25 09:41:11;;;;;;;6.43;4.27;;;8.70;47.30;;;;;;5018386;28;20285;-51
2021/01/25 09:43:36;;;;;;;4.53;3.03;;;8.70;47.80;;;;;;5006937;28;20513;-52
2021/01/25 09:46:02;;;;;;;10.53;5.00;;;8.60;42.20;;;;;;5000707;28;20109;-50
2021/01/25 09:48:28;;;;;;;9.27;4.23;;;8.50;45.70;;;;;;5001871;28;20042;-50
2021/01/25 09:50:53;;;;;;;10.20;5.57;;;8.50;43.80;;;;;;5026116;28;20128;-50
2021/01/25 09:53:21;;;;;;;9.00;4.67;;;8.40;44.90;;;;;;4998161;27;20030;-52
2021/01/25 09:55:49;;;;;;;6.47;3.00;;;8.40;45.20;;;;;;4968985;28;20124;-54
2021/01/25 09:58:16;;;;;;;6.63;3.10;;;8.40;45.40;;;;;;4999529;28;20038;-54
2021/01/25 10:00:41;;;;;;;9.23;3.30;;;8.30;43.90;;;;;;4976557;28;20073;-53
2021/01/25 10:03:08;;;;;;;6.17;3.10;;;8.20;44.40;;;;;;5000205;28;20049;-52
2021/01/25 10:05:34;;;;;;;5.63;2.80;;;8.20;43.80;;;;;;4999063;28;20104;-53
2021/01/25 10:08:00;;;;;;;4.23;2.30;;;8.10;45.00;;;;;;4994932;28;20623;-50
2021/01/25 10:10:27;;;;;;;4.70;3.10;;;8.10;45.60;;;;;;5009485;28;20034;-59
2021/01/25 10:12:53;;;;;;;4.07;3.00;;;8.10;46.00;;;;;;4993069;28;20038;-52
2021/01/25 10:15:18;;;;;;;7.10;3.87;;;8.00;45.10;;;;;;5000883;28;20049;-54
2021/01/25 10:17:44;;;;;;;5.67;3.33;;;8.10;46.20;;;;;;5003723;28;20145;-53
2021/01/25 10:20:11;;;;;;;4.60;2.70;;;8.00;44.90;;;;;;4997360;28;20060;-56
2021/01/25 10:22:38;;;;;;;4.07;2.00;;;8.00;43.90;;;;;;5003959;28;20042;-53
2021/01/25 10:25:04;;;;;;;5.10;2.50;;;8.20;43.70;;;;;;4998652;28;20054;-54
2021/01/25 10:27:30;;;;;;;3.70;2.80;;;8.20;43.50;;;;;;4996705;28;20574;-53
2021/01/25 10:29:56;;;;;;;7.70;3.53;;;8.30;43.80;;;;;;4995642;28;20038;-58
2021/01/25 10:32:22;;;;;;;6.90;3.20;;;8.40;44.30;;;;;;4987686;28;20041;-58
2021/01/25 10:34:48;;;;;;;6.27;4.20;;;8.50;43.50;;;;;;4993916;28;20069;-59
2021/01/25 10:37:14;;;;;;;15.73;6.07;;;8.60;44.20;;;;;;5009119;28;20049;-54
2021/01/25 10:39:41;;;;;;;7.67;3.40;;;8.50;44.90;;;;;;4992127;28;20046;-55
2021/01/25 10:42:07;;;;;;;4.07;2.80;;;8.60;44.50;;;;;;5039677;28;20046;-57
2021/01/25 10:44:33;;;;;;;5.53;3.07;;;8.50;43.40;;;;;;5035067;28;20102;-54
2021/01/25 10:46:58;;;;;;;4.00;2.97;;;8.60;44.50;;;;;;4992059;28;20045;-55
2021/01/25 10:49:24;;;;;;;4.93;2.93;;;8.70;44.50;;;;;;5027919;28;20070;-54
2021/01/25 10:51:49;;;;;;;4.03;3.23;;;8.90;44.10;;;;;;5008438;28;20442;-54
2021/01/25 10:54:22;;;;;;;4.97;3.43;;;9.00;44.50;;;;;;4999513;28;20073;-55
2021/01/25 10:56:48;;;;;;;6.77;3.40;;;8.90;42.90;;;;;;5004255;27;20125;-51
2021/01/25 10:59:13;;;;;;;5.40;3.23;;;8.90;44.30;;;;;;4998666;28;20594;-56
2021/01/25 11:01:39;;;;;;;8.20;3.50;;;8.90;43.80;;;;;;5012212;27;20050;-56
2021/01/25 11:04:04;;;;;;;4.67;3.23;;;9.00;45.30;;;;;;5004061;28;20033;-53
2021/01/25 11:06:31;;;;;;;4.97;3.23;;;8.90;44.30;;;;;;5005559;28;20045;-61
2021/01/25 11:08:58;;;;;;;4.53;3.80;;;8.90;44.80;;;;;;5045710;28;20133;-59
2021/01/25 11:11:24;;;;;;;4.60;3.67;;;9.20;45.70;;;;;;5032161;27;20039;-56
2021/01/25 11:13:49;;;;;;;5.00;3.03;;;9.20;45.10;;;;;;5012482;27;20383;-60
2021/01/25 11:16:15;;;;;;;8.90;4.53;;;9.20;45.00;;;;;;5070644;28;20046;-56
2021/01/25 11:18:41;;;;;;;4.03;3.30;;;9.10;45.40;;;;;;5015318;28;20036;-54
2021/01/25 11:21:06;;;;;;;8.30;3.50;;;9.20;46.10;;;;;;5014979;28;20199;-60
2021/01/25 11:23:32;;;;;;;7.00;3.50;;;9.20;45.90;;;;;;4999509;28;20086;-59
2021/01/25 11:25:57;;;;;;;5.00;3.07;;;9.00;44.90;;;;;;5005898;28;20124;-60
2021/01/25 11:28:23;;;;;;;6.10;3.63;;;8.80;43.90;;;;;;5009709;28;20383;-60
2021/01/25 11:30:49;;;;;;;6.67;3.20;;;9.00;45.20;;;;;;5004912;28;20387;-60
2021/01/25 11:33:15;;;;;;;5.90;3.80;;;9.10;45.90;;;;;;4995829;28;20075;-55
2021/01/25 11:35:42;;;;;;;4.63;3.43;;;9.00;45.30;;;;;;4999352;28;20459;-52
2021/01/25 11:38:07;;;;;;;5.23;3.60;;;8.90;45.60;;;;;;4996746;28;20117;-51
2021/01/25 11:40:33;;;;;;;6.23;3.83;;;8.90;46.30;;;;;;4999055;28;20057;-52
2021/01/25 11:42:59;;;;;;;6.70;4.97;;;9.20;47.70;;;;;;4989230;28;20141;-56
2021/01/25 11:45:24;;;;;;;10.13;5.23;;;9.20;48.70;;;;;;4996967;28;20042;-55
2021/01/25 11:47:50;;;;;;;6.53;5.30;;;9.30;50.20;;;;;;5008473;27;20432;-55
2021/01/25 11:50:16;;;;;;;10.10;6.00;;;9.20;50.20;;;;;;5000884;28;20038;-54
2021/01/25 11:52:41;;;;;;;11.47;6.03;;;9.40;50.90;;;;;;5003159;28;20068;-54
2021/01/25 11:55:08;;;;;;;9.50;5.73;;;9.40;50.60;;;;;;5002932;28;20038;-56
2021/01/25 11:57:35;;;;;;;8.43;5.40;;;9.30;50.40;;;;;;4998782;28;20096;-55
2021/01/25 12:00:00;;;;;;;10.20;5.67;;;9.30;49.60;;;;;;4995687;28;20045;-55
2021/01/25 12:02:26;;;;;;;14.07;6.17;;;9.30;49.40;;;;;;5013478;28;20079;-53
2021/01/25 12:04:52;;;;;;;11.60;6.07;;;9.40;49.50;;;;;;5024925;28;20037;-54
2021/01/25 12:07:19;;;;;;;6.00;4.60;;;9.30;49.00;;;;;;5015552;28;20039;-55
2021/01/25 12:09:45;;;;;;;5.77;4.00;;;9.10;47.90;;;;;;5057765;28;20041;-56
2021/01/25 12:12:11;;;;;;;8.13;4.90;;;9.10;46.20;;;;;;4995635;28;20043;-56
2021/01/25 12:14:37;;;;;;;7.60;5.10;;;9.10;47.10;;;;;;5017023;28;20038;-54
2021/01/25 12:17:03;;;;;;;8.40;5.53;;;9.20;47.30;;;;;;5024958;28;20040;-56
2021/01/25 12:19:29;;;;;;;11.47;6.30;;;9.20;49.60;;;;;;5027396;28;20043;-56
2021/01/25 12:21:54;;;;;;;9.90;6.40;;;9.20;49.20;;;;;;4995683;28;20053;-57
2021/01/25 12:24:20;;;;;;;10.13;6.20;;;9.20;48.50;;;;;;4996745;27;20045;-56
2021/01/25 12:26:46;;;;;;;9.70;5.83;;;9.20;48.30;;;;;;5012631;27;20045;-56
2021/01/25 12:29:12;;;;;;;7.63;4.83;;;9.20;48.50;;;;;;5019999;28;20045;-56
2021/01/25 12:31:37;;;;;;;6.97;5.10;;;9.00;47.50;;;;;;5010572;28;20129;-52
2021/01/25 12:34:03;;;;;;;6.57;4.90;;;8.90;47.80;;;;;;5001779;28;20137;-52
2021/01/25 12:36:29;;;;;;;7.83;4.67;;;9.00;46.60;;;;;;4995183;28;20642;-52
2021/01/25 12:38:57;;;;;;;12.50;5.93;;;9.20;47.20;;;;;;4993799;28;20574;-55
2021/01/25 12:41:23;;;;;;;12.43;6.40;;;9.20;48.40;;;;;;5003955;28;20058;-53
2021/01/25 12:43:49;;;;;;;6.10;4.53;;;9.30;50.50;;;;;;4999546;28;20029;-56
2021/01/25 12:46:14;;;;;;;6.50;5.20;;;9.20;47.40;;;;;;4999465;28;20084;-53
2021/01/25 12:48:40;;;;;;;5.23;3.97;;;9.40;47.30;;;;;;4997856;28;20045;-54
2021/01/25 12:51:06;;;;;;;5.30;3.77;;;9.50;47.10;;;;;;4996622;28;20041;-55
2021/01/25 12:53:31;;;;;;;7.03;4.30;;;9.50;46.60;;;;;;4997794;28;20030;-55
2021/01/25 12:55:57;;;;;;;7.67;5.13;;;9.40;45.20;;;;;;4995329;28;20517;-53